sensor_id;sensor_type;location;lat;lon;timestamp;temperature;humidity
36280;DHT22;22317;47.936;12.742;2022-08-02T00:01:47;18.60;48.00
36280;DHT22;22317;47.936;12.742;2022-08-02T00:04:13;18.50;48.00
36280;DHT22;22317;47.936;12.742;2022-08-02T00:06:41;18.50;48.20
36280;DHT22;22317;47.936;12.742;2022-08-02T00:09:07;18.50;48.30
36280;DHT22;22317;47.936;12.742;2022-08-02T00:11:33;18.50;48.50
36280;DHT22;22317;47.936;12.742;2022-08-02T00:14:02;18.50;48.60
36280;DHT22;22317;47.936;12.742;2022-08-02T00:16:34;18.50;48.50
36280;DHT22;22317;47.936;12.742;2022-08-02T00:19:00;18.50;48.60
36280;DHT22;22317;47.936;12.742;2022-08-02T00:21:26;18.50;48.50
36280;DHT22;22317;47.936;12.742;2022-08-02T00:23:51;18.50;48.50
36280;DHT22;22317;47.936;12.742;2022-08-02T00:26:20;18.50;48.60
36280;DHT22;22317;47.936;12.742;2022-08-02T00:28:46;18.50;48.70
36280;DHT22;22317;47.936;12.742;2022-08-02T00:31:15;18.50;48.80
36280;DHT22;22317;47.936;12.742;2022-08-02T00:33:41;18.50;49.00
36280;DHT22;22317;47.936;12.742;2022-08-02T00:36:10;18.50;48.80
36280;DHT22;22317;47.936;12.742;2022-08-02T00:38:39;18.50;49.40
36280;DHT22;22317;47.936;12.742;2022-08-02T00:41:15;18.50;49.60
36280;DHT22;22317;47.936;12.742;2022-08-02T00:43:43;18.50;50.40
36280;DHT22;22317;47.936;12.742;2022-08-02T00:46:09;18.50;50.50
36280;DHT22;22317;47.936;12.742;2022-08-02T00:48:38;18.40;50.80
36280;DHT22;22317;47.936;12.742;2022-08-02T00:51:04;18.40;51.20
36280;DHT22;22317;47.936;12.742;2022-08-02T00:53:31;18.40;51.30
36280;DHT22;22317;47.936;12.742;2022-08-02T00:55:57;18.30;51.40
36280;DHT22;22317;47.936;12.742;2022-08-02T00:58:23;18.20;51.60
36280;DHT22;22317;47.936;12.742;2022-08-02T01:00:49;18.10;51.70
36280;DHT22;22317;47.936;12.742;2022-08-02T01:03:14;18.00;52.00
36280;DHT22;22317;47.936;12.742;2022-08-02T01:05:40;18.00;52.20
36280;DHT22;22317;47.936;12.742;2022-08-02T01:08:06;18.00;52.30
36280;DHT22;22317;47.936;12.742;2022-08-02T01:10:32;17.90;52.50
36280;DHT22;22317;47.936;12.742;2022-08-02T01:12:58;17.90;52.60
36280;DHT22;22317;47.936;12.742;2022-08-02T01:15:24;17.90;52.90
36280;DHT22;22317;47.936;12.742;2022-08-02T01:18:04;17.90;53.00
36280;DHT22;22317;47.936;12.742;2022-08-02T01:23:40;17.90;53.70
36280;DHT22;22317;47.936;12.742;2022-08-02T01:31:31;17.80;53.70
36280;DHT22;22317;47.936;12.742;2022-08-02T01:34:50;17.80;53.80
36280;DHT22;22317;47.936;12.742;2022-08-02T01:40:17;17.90;54.20
36280;DHT22;22317;47.936;12.742;2022-08-02T01:42:48;17.90;53.90
36280;DHT22;22317;47.936;12.742;2022-08-02T01:45:15;17.90;53.80
36280;DHT22;22317;47.936;12.742;2022-08-02T01:47:44;17.90;54.00
36280;DHT22;22317;47.936;12.742;2022-08-02T01:50:13;17.90;54.20
36280;DHT22;22317;47.936;12.742;2022-08-02T01:52:45;18.00;54.40
36280;DHT22;22317;47.936;12.742;2022-08-02T01:55:18;17.90;54.10
36280;DHT22;22317;47.936;12.742;2022-08-02T01:58:01;17.90;54.10
36280;DHT22;22317;47.936;12.742;2022-08-02T02:00:31;17.90;54.30
36280;DHT22;22317;47.936;12.742;2022-08-02T02:02:58;17.90;54.20
36280;DHT22;22317;47.936;12.742;2022-08-02T02:05:27;17.90;54.30
36280;DHT22;22317;47.936;12.742;2022-08-02T02:08:01;17.90;54.40
36280;DHT22;22317;47.936;12.742;2022-08-02T02:10:29;17.90;54.50
36280;DHT22;22317;47.936;12.742;2022-08-02T02:12:59;18.00;54.40
36280;DHT22;22317;47.936;12.742;2022-08-02T02:15:26;18.00;54.40
36280;DHT22;22317;47.936;12.742;2022-08-02T02:17:53;18.00;54.40
36280;DHT22;22317;47.936;12.742;2022-08-02T02:20:21;18.00;54.30
36280;DHT22;22317;47.936;12.742;2022-08-02T02:22:47;18.00;54.20
36280;DHT22;22317;47.936;12.742;2022-08-02T02:25:19;18.10;53.40
36280;DHT22;22317;47.936;12.742;2022-08-02T02:30:15;18.10;53.90
36280;DHT22;22317;47.936;12.742;2022-08-02T02:32:43;18.20;54.00
36280;DHT22;22317;47.936;12.742;2022-08-02T02:35:10;18.20;53.80
36280;DHT22;22317;47.936;12.742;2022-08-02T02:37:39;18.20;53.70
36280;DHT22;22317;47.936;12.742;2022-08-02T02:40:07;18.20;53.60
36280;DHT22;22317;47.936;12.742;2022-08-02T02:42:37;18.20;53.50
36280;DHT22;22317;47.936;12.742;2022-08-02T02:45:10;18.30;52.80
36280;DHT22;22317;47.936;12.742;2022-08-02T02:47:37;18.20;53.20
36280;DHT22;22317;47.936;12.742;2022-08-02T02:50:04;18.20;53.00
36280;DHT22;22317;47.936;12.742;2022-08-02T02:52:30;18.20;53.00
36280;DHT22;22317;47.936;12.742;2022-08-02T02:54:57;18.10;52.50
36280;DHT22;22317;47.936;12.742;2022-08-02T02:57:24;18.10;53.10
36280;DHT22;22317;47.936;12.742;2022-08-02T02:59:53;18.10;53.00
36280;DHT22;22317;47.936;12.742;2022-08-02T03:02:19;18.10;53.10
36280;DHT22;22317;47.936;12.742;2022-08-02T03:04:45;18.10;53.00
36280;DHT22;22317;47.936;12.742;2022-08-02T03:07:11;18.10;52.50
36280;DHT22;22317;47.936;12.742;2022-08-02T03:09:37;18.10;52.90
36280;DHT22;22317;47.936;12.742;2022-08-02T03:12:03;18.10;53.00
36280;DHT22;22317;47.936;12.742;2022-08-02T03:14:29;18.10;53.00
36280;DHT22;22317;47.936;12.742;2022-08-02T03:16:55;18.10;52.90
36280;DHT22;22317;47.936;12.742;2022-08-02T03:19:22;18.10;53.00
36280;DHT22;22317;47.936;12.742;2022-08-02T03:21:49;18.10;53.00
36280;DHT22;22317;47.936;12.742;2022-08-02T03:24:15;18.00;52.90
36280;DHT22;22317;47.936;12.742;2022-08-02T03:26:41;18.10;53.00
36280;DHT22;22317;47.936;12.742;2022-08-02T03:29:08;18.00;52.80
36280;DHT22;22317;47.936;12.742;2022-08-02T03:31:39;18.00;53.00
36280;DHT22;22317;47.936;12.742;2022-08-02T03:34:05;17.90;53.20
36280;DHT22;22317;47.936;12.742;2022-08-02T03:36:32;17.80;52.90
36280;DHT22;22317;47.936;12.742;2022-08-02T03:38:59;17.80;53.40
36280;DHT22;22317;47.936;12.742;2022-08-02T03:41:27;17.80;53.50
36280;DHT22;22317;47.936;12.742;2022-08-02T03:43:53;17.80;53.60
36280;DHT22;22317;47.936;12.742;2022-08-02T03:46:21;17.70;53.20
36280;DHT22;22317;47.936;12.742;2022-08-02T03:48:51;17.70;53.70
36280;DHT22;22317;47.936;12.742;2022-08-02T03:51:18;17.70;53.70
36280;DHT22;22317;47.936;12.742;2022-08-02T03:53:44;17.70;53.70
36280;DHT22;22317;47.936;12.742;2022-08-02T03:56:10;17.60;53.70
36280;DHT22;22317;47.936;12.742;2022-08-02T03:58:40;17.60;53.80
36280;DHT22;22317;47.936;12.742;2022-08-02T04:01:05;17.50;53.80
36280;DHT22;22317;47.936;12.742;2022-08-02T04:03:31;17.40;53.80
36280;DHT22;22317;47.936;12.742;2022-08-02T04:06:00;17.40;53.90
36280;DHT22;22317;47.936;12.742;2022-08-02T04:08:32;17.30;54.00
36280;DHT22;22317;47.936;12.742;2022-08-02T04:11:01;17.30;54.20
36280;DHT22;22317;47.936;12.742;2022-08-02T04:14:07;17.30;54.20
36280;DHT22;22317;47.936;12.742;2022-08-02T04:16:58;17.20;54.20
36280;DHT22;22317;47.936;12.742;2022-08-02T04:22:02;17.10;54.50
36280;DHT22;22317;47.936;12.742;2022-08-02T04:24:38;17.00;54.50
36280;DHT22;22317;47.936;12.742;2022-08-02T04:27:07;17.00;54.70
36280;DHT22;22317;47.936;12.742;2022-08-02T04:29:34;16.90;54.70
36280;DHT22;22317;47.936;12.742;2022-08-02T04:32:02;16.90;54.90
36280;DHT22;22317;47.936;12.742;2022-08-02T04:34:29;16.90;55.00
36280;DHT22;22317;47.936;12.742;2022-08-02T04:36:56;16.90;54.80
36280;DHT22;22317;47.936;12.742;2022-08-02T04:39:23;16.90;55.20
36280;DHT22;22317;47.936;12.742;2022-08-02T04:41:49;16.90;55.10
36280;DHT22;22317;47.936;12.742;2022-08-02T04:44:14;16.90;55.20
36280;DHT22;22317;47.936;12.742;2022-08-02T04:46:42;16.90;55.30
36280;DHT22;22317;47.936;12.742;2022-08-02T04:49:08;16.90;55.20
36280;DHT22;22317;47.936;12.742;2022-08-02T04:51:35;17.00;55.20
36280;DHT22;22317;47.936;12.742;2022-08-02T04:54:02;18.90;56.30
36280;DHT22;22317;47.936;12.742;2022-08-02T04:56:28;17.00;55.20
36280;DHT22;22317;47.936;12.742;2022-08-02T04:58:54;17.10;55.20
36280;DHT22;22317;47.936;12.742;2022-08-02T05:01:19;17.40;55.20
36280;DHT22;22317;47.936;12.742;2022-08-02T05:03:45;17.10;55.00
36280;DHT22;22317;47.936;12.742;2022-08-02T05:06:11;17.10;55.00
36280;DHT22;22317;47.936;12.742;2022-08-02T05:08:36;17.20;55.00
36280;DHT22;22317;47.936;12.742;2022-08-02T05:11:02;17.20;55.00
36280;DHT22;22317;47.936;12.742;2022-08-02T05:13:28;17.20;54.90
36280;DHT22;22317;47.936;12.742;2022-08-02T05:15:54;17.30;54.50
36280;DHT22;22317;47.936;12.742;2022-08-02T05:18:20;17.30;55.00
36280;DHT22;22317;47.936;12.742;2022-08-02T05:20:46;17.30;54.90
36280;DHT22;22317;47.936;12.742;2022-08-02T05:23:11;16.20;54.30
36280;DHT22;22317;47.936;12.742;2022-08-02T05:25:37;17.40;54.40
36280;DHT22;22317;47.936;12.742;2022-08-02T05:28:03;17.40;54.90
36280;DHT22;22317;47.936;12.742;2022-08-02T05:30:29;17.50;54.80
36280;DHT22;22317;47.936;12.742;2022-08-02T05:32:55;17.50;54.80
36280;DHT22;22317;47.936;12.742;2022-08-02T05:35:22;17.60;54.20
36280;DHT22;22317;47.936;12.742;2022-08-02T05:37:48;17.60;54.70
36280;DHT22;22317;47.936;12.742;2022-08-02T05:40:15;17.60;54.70
36280;DHT22;22317;47.936;12.742;2022-08-02T05:42:41;20.30;56.20
36280;DHT22;22317;47.936;12.742;2022-08-02T05:45:07;17.80;53.90
36280;DHT22;22317;47.936;12.742;2022-08-02T05:47:34;17.80;54.30
36280;DHT22;22317;47.936;12.742;2022-08-02T05:50:00;17.90;54.40
36280;DHT22;22317;47.936;12.742;2022-08-02T05:52:56;17.90;54.20
36280;DHT22;22317;47.936;12.742;2022-08-02T05:55:25;17.90;54.30
36280;DHT22;22317;47.936;12.742;2022-08-02T05:58:12;18.00;54.20
36280;DHT22;22317;47.936;12.742;2022-08-02T06:00:40;18.10;54.20
36280;DHT22;22317;47.936;12.742;2022-08-02T06:03:26;18.10;54.10
36280;DHT22;22317;47.936;12.742;2022-08-02T06:06:04;18.20;54.20
36280;DHT22;22317;47.936;12.742;2022-08-02T06:08:38;18.30;54.20
36280;DHT22;22317;47.936;12.742;2022-08-02T06:11:11;18.30;54.20
36280;DHT22;22317;47.936;12.742;2022-08-02T06:13:40;18.40;54.30
36280;DHT22;22317;47.936;12.742;2022-08-02T06:16:06;18.50;54.10
36280;DHT22;22317;47.936;12.742;2022-08-02T06:18:32;18.50;54.00
36280;DHT22;22317;47.936;12.742;2022-08-02T06:21:04;18.60;54.40
36280;DHT22;22317;47.936;12.742;2022-08-02T06:23:31;18.60;54.10
36280;DHT22;22317;47.936;12.742;2022-08-02T06:25:58;18.70;53.60
36280;DHT22;22317;47.936;12.742;2022-08-02T06:28:25;18.70;54.10
36280;DHT22;22317;47.936;12.742;2022-08-02T06:30:51;18.80;53.90
36280;DHT22;22317;47.936;12.742;2022-08-02T06:33:17;18.80;53.90
36280;DHT22;22317;47.936;12.742;2022-08-02T06:38:24;18.90;54.00
36280;DHT22;22317;47.936;12.742;2022-08-02T06:40:55;19.00;53.90
36280;DHT22;22317;47.936;12.742;2022-08-02T06:45:57;19.10;53.80
36280;DHT22;22317;47.936;12.742;2022-08-02T06:48:22;19.10;53.80
36280;DHT22;22317;47.936;12.742;2022-08-02T06:50:48;19.20;53.80
36280;DHT22;22317;47.936;12.742;2022-08-02T06:53:17;19.30;53.90
36280;DHT22;22317;47.936;12.742;2022-08-02T06:55:43;19.30;53.90
36280;DHT22;22317;47.936;12.742;2022-08-02T06:58:08;19.40;53.80
36280;DHT22;22317;47.936;12.742;2022-08-02T07:00:34;19.40;53.60
36280;DHT22;22317;47.936;12.742;2022-08-02T07:03:01;19.50;53.50
36280;DHT22;22317;47.936;12.742;2022-08-02T07:05:27;19.50;53.40
36280;DHT22;22317;47.936;12.742;2022-08-02T07:07:53;19.50;53.20
36280;DHT22;22317;47.936;12.742;2022-08-02T07:10:18;19.60;53.30
36280;DHT22;22317;47.936;12.742;2022-08-02T07:12:44;19.70;53.40
36280;DHT22;22317;47.936;12.742;2022-08-02T07:15:10;19.70;53.20
36280;DHT22;22317;47.936;12.742;2022-08-02T07:17:37;19.80;53.10
36280;DHT22;22317;47.936;12.742;2022-08-02T07:20:03;19.90;52.90
36280;DHT22;22317;47.936;12.742;2022-08-02T07:22:29;20.00;52.80
36280;DHT22;22317;47.936;12.742;2022-08-02T07:24:57;20.10;52.10
36280;DHT22;22317;47.936;12.742;2022-08-02T07:27:24;20.10;52.50
36280;DHT22;22317;47.936;12.742;2022-08-02T07:29:50;20.20;52.40
36280;DHT22;22317;47.936;12.742;2022-08-02T07:32:19;20.30;52.20
36280;DHT22;22317;47.936;12.742;2022-08-02T07:34:46;20.30;52.20
36280;DHT22;22317;47.936;12.742;2022-08-02T07:37:12;20.40;52.10
36280;DHT22;22317;47.936;12.742;2022-08-02T07:39:38;20.50;51.90
36280;DHT22;22317;47.936;12.742;2022-08-02T07:42:04;20.60;51.80
36280;DHT22;22317;47.936;12.742;2022-08-02T07:44:29;20.70;51.80
36280;DHT22;22317;47.936;12.742;2022-08-02T07:47:03;20.80;51.80
36280;DHT22;22317;47.936;12.742;2022-08-02T07:49:29;22.70;52.70
36280;DHT22;22317;47.936;12.742;2022-08-02T07:51:56;21.10;51.50
36280;DHT22;22317;47.936;12.742;2022-08-02T07:54:22;21.20;51.20
36280;DHT22;22317;47.936;12.742;2022-08-02T07:56:48;21.30;51.00
36280;DHT22;22317;47.936;12.742;2022-08-02T07:59:14;21.50;50.90
36280;DHT22;22317;47.936;12.742;2022-08-02T08:01:40;21.60;50.60
36280;DHT22;22317;47.936;12.742;2022-08-02T08:04:06;21.80;50.40
36280;DHT22;22317;47.936;12.742;2022-08-02T08:06:32;21.90;50.00
36280;DHT22;22317;47.936;12.742;2022-08-02T08:08:58;22.00;49.70
36280;DHT22;22317;47.936;12.742;2022-08-02T08:11:27;22.20;49.40
36280;DHT22;22317;47.936;12.742;2022-08-02T08:13:52;22.40;49.00
36280;DHT22;22317;47.936;12.742;2022-08-02T08:16:18;22.50;48.80
36280;DHT22;22317;47.936;12.742;2022-08-02T08:18:44;22.70;48.30
36280;DHT22;22317;47.936;12.742;2022-08-02T08:21:13;22.90;47.80
36280;DHT22;22317;47.936;12.742;2022-08-02T08:23:38;23.00;47.20
36280;DHT22;22317;47.936;12.742;2022-08-02T08:26:04;23.20;47.00
36280;DHT22;22317;47.936;12.742;2022-08-02T08:28:36;23.40;46.70
36280;DHT22;22317;47.936;12.742;2022-08-02T08:31:02;23.50;46.10
36280;DHT22;22317;47.936;12.742;2022-08-02T08:33:30;23.50;45.60
36280;DHT22;22317;47.936;12.742;2022-08-02T08:35:56;23.70;45.20
36280;DHT22;22317;47.936;12.742;2022-08-02T08:38:22;23.80;45.00
36280;DHT22;22317;47.936;12.742;2022-08-02T08:40:52;23.90;44.70
36280;DHT22;22317;47.936;12.742;2022-08-02T08:43:17;24.00;44.20
36280;DHT22;22317;47.936;12.742;2022-08-02T08:45:49;24.20;44.00
36280;DHT22;22317;47.936;12.742;2022-08-02T08:48:16;24.20;43.50
36280;DHT22;22317;47.936;12.742;2022-08-02T08:50:54;24.30;43.30
36280;DHT22;22317;47.936;12.742;2022-08-02T08:53:23;24.30;43.20
36280;DHT22;22317;47.936;12.742;2022-08-02T08:55:52;24.40;43.10
36280;DHT22;22317;47.936;12.742;2022-08-02T08:58:22;24.50;42.80
36280;DHT22;22317;47.936;12.742;2022-08-02T09:00:48;24.60;42.70
36280;DHT22;22317;47.936;12.742;2022-08-02T09:03:14;24.80;42.60
36280;DHT22;22317;47.936;12.742;2022-08-02T09:05:40;24.90;42.20
36280;DHT22;22317;47.936;12.742;2022-08-02T09:08:11;25.10;42.00
36280;DHT22;22317;47.936;12.742;2022-08-02T09:10:42;25.20;41.70
36280;DHT22;22317;47.936;12.742;2022-08-02T09:15:41;25.50;41.20
36280;DHT22;22317;47.936;12.742;2022-08-02T09:18:07;25.60;41.10
36280;DHT22;22317;47.936;12.742;2022-08-02T09:20:34;25.70;40.70
36280;DHT22;22317;47.936;12.742;2022-08-02T09:23:05;25.80;40.40
36280;DHT22;22317;47.936;12.742;2022-08-02T09:25:35;25.90;40.10
36280;DHT22;22317;47.936;12.742;2022-08-02T09:28:03;26.00;40.00
36280;DHT22;22317;47.936;12.742;2022-08-02T09:30:29;26.00;39.80
36280;DHT22;22317;47.936;12.742;2022-08-02T09:32:56;26.00;39.60
36280;DHT22;22317;47.936;12.742;2022-08-02T09:35:35;26.10;39.70
36280;DHT22;22317;47.936;12.742;2022-08-02T09:38:12;26.10;39.40
36280;DHT22;22317;47.936;12.742;2022-08-02T09:40:40;26.00;39.20
36280;DHT22;22317;47.936;12.742;2022-08-02T09:43:07;26.00;39.20
36280;DHT22;22317;47.936;12.742;2022-08-02T09:45:34;26.00;39.30
36280;DHT22;22317;47.936;12.742;2022-08-02T09:48:07;26.00;39.30
36280;DHT22;22317;47.936;12.742;2022-08-02T09:50:38;26.10;39.20
36280;DHT22;22317;47.936;12.742;2022-08-02T09:53:04;26.20;39.20
36280;DHT22;22317;47.936;12.742;2022-08-02T09:55:31;26.30;39.30
36280;DHT22;22317;47.936;12.742;2022-08-02T09:58:15;26.40;39.00
36280;DHT22;22317;47.936;12.742;2022-08-02T10:00:54;26.50;38.80
36280;DHT22;22317;47.936;12.742;2022-08-02T10:03:20;26.50;38.60
36280;DHT22;22317;47.936;12.742;2022-08-02T10:05:51;26.70;38.80
36280;DHT22;22317;47.936;12.742;2022-08-02T10:08:19;26.70;38.40
36280;DHT22;22317;47.936;12.742;2022-08-02T10:10:45;26.80;38.30
36280;DHT22;22317;47.936;12.742;2022-08-02T10:13:11;26.80;38.00
36280;DHT22;22317;47.936;12.742;2022-08-02T10:15:38;26.80;37.90
36280;DHT22;22317;47.936;12.742;2022-08-02T10:18:05;26.80;37.80
36280;DHT22;22317;47.936;12.742;2022-08-02T10:20:39;26.90;37.70
36280;DHT22;22317;47.936;12.742;2022-08-02T10:23:10;26.80;37.60
36280;DHT22;22317;47.936;12.742;2022-08-02T10:25:38;26.80;37.60
36280;DHT22;22317;47.936;12.742;2022-08-02T10:28:06;26.90;37.60
36280;DHT22;22317;47.936;12.742;2022-08-02T10:30:35;27.00;37.30
36280;DHT22;22317;47.936;12.742;2022-08-02T10:33:03;26.90;37.10
36280;DHT22;22317;47.936;12.742;2022-08-02T10:35:34;27.00;37.30
36280;DHT22;22317;47.936;12.742;2022-08-02T10:38:04;27.00;37.10
36280;DHT22;22317;47.936;12.742;2022-08-02T10:40:46;27.20;37.20
36280;DHT22;22317;47.936;12.742;2022-08-02T10:56:57;27.90;35.70
36280;DHT22;22317;47.936;12.742;2022-08-02T10:59:34;27.80;35.50
36280;DHT22;22317;47.936;12.742;2022-08-02T11:02:02;27.90;35.60
36280;DHT22;22317;47.936;12.742;2022-08-02T11:07:14;28.00;35.00
36280;DHT22;22317;47.936;12.742;2022-08-02T11:09:43;28.10;34.50
36280;DHT22;22317;47.936;12.742;2022-08-02T11:12:14;28.00;34.20
36280;DHT22;22317;47.936;12.742;2022-08-02T11:14:42;28.00;34.10
36280;DHT22;22317;47.936;12.742;2022-08-02T11:17:13;28.00;34.40
36280;DHT22;22317;47.936;12.742;2022-08-02T11:20:15;28.00;33.40
36280;DHT22;22317;47.936;12.742;2022-08-02T11:22:42;28.10;33.30
36280;DHT22;22317;47.936;12.742;2022-08-02T11:27:55;28.20;32.80
36280;DHT22;22317;47.936;12.742;2022-08-02T11:30:21;28.30;33.00
36280;DHT22;22317;47.936;12.742;2022-08-02T11:32:47;28.40;33.10
36280;DHT22;22317;47.936;12.742;2022-08-02T11:35:13;28.60;33.00
36280;DHT22;22317;47.936;12.742;2022-08-02T11:37:43;28.60;32.30
36280;DHT22;22317;47.936;12.742;2022-08-02T11:40:13;28.80;31.70
36280;DHT22;22317;47.936;12.742;2022-08-02T11:42:42;28.80;31.40
36280;DHT22;22317;47.936;12.742;2022-08-02T11:45:10;28.80;31.10
36280;DHT22;22317;47.936;12.742;2022-08-02T11:47:52;28.70;30.80
36280;DHT22;22317;47.936;12.742;2022-08-02T11:50:22;28.70;30.20
36280;DHT22;22317;47.936;12.742;2022-08-02T11:52:50;28.60;30.90
36280;DHT22;22317;47.936;12.742;2022-08-02T11:55:26;28.70;31.00
36280;DHT22;22317;47.936;12.742;2022-08-02T11:58:03;28.80;31.40
36280;DHT22;22317;47.936;12.742;2022-08-02T12:00:29;28.90;30.60
36280;DHT22;22317;47.936;12.742;2022-08-02T12:02:55;29.00;30.90
36280;DHT22;22317;47.936;12.742;2022-08-02T12:05:22;29.20;30.90
36280;DHT22;22317;47.936;12.742;2022-08-02T12:07:54;29.30;30.50
36280;DHT22;22317;47.936;12.742;2022-08-02T12:10:22;29.40;30.50
36280;DHT22;22317;47.936;12.742;2022-08-02T12:12:59;29.40;30.50
36280;DHT22;22317;47.936;12.742;2022-08-02T12:18:09;29.70;30.50
36280;DHT22;22317;47.936;12.742;2022-08-02T12:20:54;29.80;30.40
36280;DHT22;22317;47.936;12.742;2022-08-02T12:23:20;30.00;30.40
36280;DHT22;22317;47.936;12.742;2022-08-02T12:25:45;30.10;29.80
36280;DHT22;22317;47.936;12.742;2022-08-02T12:28:23;30.10;29.30
36280;DHT22;22317;47.936;12.742;2022-08-02T12:30:52;30.10;29.60
36280;DHT22;22317;47.936;12.742;2022-08-02T12:33:19;30.10;29.60
36280;DHT22;22317;47.936;12.742;2022-08-02T12:35:44;30.10;29.50
36280;DHT22;22317;47.936;12.742;2022-08-02T12:38:11;29.90;29.20
36280;DHT22;22317;47.936;12.742;2022-08-02T12:40:37;29.70;29.20
36280;DHT22;22317;47.936;12.742;2022-08-02T12:43:07;29.60;29.70
36280;DHT22;22317;47.936;12.742;2022-08-02T12:45:49;29.70;30.10
36280;DHT22;22317;47.936;12.742;2022-08-02T12:48:28;29.80;30.20
36280;DHT22;22317;47.936;12.742;2022-08-02T12:50:55;30.00;30.40
36280;DHT22;22317;47.936;12.742;2022-08-02T12:53:21;30.10;30.30
36280;DHT22;22317;47.936;12.742;2022-08-02T12:55:56;30.30;30.30
36280;DHT22;22317;47.936;12.742;2022-08-02T12:58:23;30.50;31.00
36280;DHT22;22317;47.936;12.742;2022-08-02T13:00:54;30.70;31.00
36280;DHT22;22317;47.936;12.742;2022-08-02T13:03:21;30.90;30.20
36280;DHT22;22317;47.936;12.742;2022-08-02T13:05:48;31.00;30.00
36280;DHT22;22317;47.936;12.742;2022-08-02T13:08:15;31.00;29.50
36280;DHT22;22317;47.936;12.742;2022-08-02T13:10:44;30.90;29.20
36280;DHT22;22317;47.936;12.742;2022-08-02T13:13:09;30.90;29.20
36280;DHT22;22317;47.936;12.742;2022-08-02T13:15:38;31.00;29.30
36280;DHT22;22317;47.936;12.742;2022-08-02T13:18:07;31.00;29.60
36280;DHT22;22317;47.936;12.742;2022-08-02T13:20:35;31.20;29.50
36280;DHT22;22317;47.936;12.742;2022-08-02T13:23:01;31.50;29.70
36280;DHT22;22317;47.936;12.742;2022-08-02T13:25:27;31.70;29.40
36280;DHT22;22317;47.936;12.742;2022-08-02T13:27:53;31.90;29.20
36280;DHT22;22317;47.936;12.742;2022-08-02T13:30:18;32.10;28.90
36280;DHT22;22317;47.936;12.742;2022-08-02T13:32:47;32.20;28.40
36280;DHT22;22317;47.936;12.742;2022-08-02T13:35:16;32.20;28.40
36280;DHT22;22317;47.936;12.742;2022-08-02T13:37:42;32.30;28.20
36280;DHT22;22317;47.936;12.742;2022-08-02T13:40:11;32.40;27.60
36280;DHT22;22317;47.936;12.742;2022-08-02T13:42:38;32.40;27.50
36280;DHT22;22317;47.936;12.742;2022-08-02T13:45:04;32.50;27.80
36280;DHT22;22317;47.936;12.742;2022-08-02T13:47:42;32.60;27.70
36280;DHT22;22317;47.936;12.742;2022-08-02T13:50:09;32.70;26.80
36280;DHT22;22317;47.936;12.742;2022-08-02T13:52:40;32.70;26.50
36280;DHT22;22317;47.936;12.742;2022-08-02T13:55:06;32.50;26.20
36280;DHT22;22317;47.936;12.742;2022-08-02T13:57:32;32.50;26.40
36280;DHT22;22317;47.936;12.742;2022-08-02T13:59:58;32.40;26.60
36280;DHT22;22317;47.936;12.742;2022-08-02T14:02:25;32.50;26.70
36280;DHT22;22317;47.936;12.742;2022-08-02T14:04:51;32.50;26.30
36280;DHT22;22317;47.936;12.742;2022-08-02T14:07:16;32.50;26.60
36280;DHT22;22317;47.936;12.742;2022-08-02T14:09:42;32.60;26.50
36280;DHT22;22317;47.936;12.742;2022-08-02T14:12:08;32.60;26.40
36280;DHT22;22317;47.936;12.742;2022-08-02T14:14:34;32.60;26.40
36280;DHT22;22317;47.936;12.742;2022-08-02T14:17:00;32.60;26.50
36280;DHT22;22317;47.936;12.742;2022-08-02T14:19:33;32.60;26.50
36280;DHT22;22317;47.936;12.742;2022-08-02T14:21:59;32.60;26.30
36280;DHT22;22317;47.936;12.742;2022-08-02T14:24:24;32.50;26.50
36280;DHT22;22317;47.936;12.742;2022-08-02T14:26:50;32.30;26.40
36280;DHT22;22317;47.936;12.742;2022-08-02T14:29:22;32.20;26.40
36280;DHT22;22317;47.936;12.742;2022-08-02T14:31:48;32.10;26.40
36280;DHT22;22317;47.936;12.742;2022-08-02T14:34:13;32.20;26.70
36280;DHT22;22317;47.936;12.742;2022-08-02T14:36:40;32.30;26.70
36280;DHT22;22317;47.936;12.742;2022-08-02T14:39:05;32.40;26.60
36280;DHT22;22317;47.936;12.742;2022-08-02T14:41:34;32.50;26.60
36280;DHT22;22317;47.936;12.742;2022-08-02T14:44:02;32.50;26.50
36280;DHT22;22317;47.936;12.742;2022-08-02T14:46:36;32.40;26.40
36280;DHT22;22317;47.936;12.742;2022-08-02T14:49:12;32.60;26.40
36280;DHT22;22317;47.936;12.742;2022-08-02T14:51:40;32.60;26.30
36280;DHT22;22317;47.936;12.742;2022-08-02T14:54:09;32.50;26.40
36280;DHT22;22317;47.936;12.742;2022-08-02T14:56:35;33.00;26.60
36280;DHT22;22317;47.936;12.742;2022-08-02T14:59:03;32.40;26.20
36280;DHT22;22317;47.936;12.742;2022-08-02T15:01:33;32.50;26.30
36280;DHT22;22317;47.936;12.742;2022-08-02T15:04:02;31.70;25.80
36280;DHT22;22317;47.936;12.742;2022-08-02T15:06:28;32.50;26.20
36280;DHT22;22317;47.936;12.742;2022-08-02T15:08:58;32.50;26.20
36280;DHT22;22317;47.936;12.742;2022-08-02T15:11:24;32.50;26.20
36280;DHT22;22317;47.936;12.742;2022-08-02T15:13:49;32.40;26.00
36280;DHT22;22317;47.936;12.742;2022-08-02T15:16:15;32.20;26.00
36280;DHT22;22317;47.936;12.742;2022-08-02T15:18:43;32.00;26.20
36280;DHT22;22317;47.936;12.742;2022-08-02T15:21:11;31.70;26.20
36280;DHT22;22317;47.936;12.742;2022-08-02T15:23:37;31.60;26.40
36280;DHT22;22317;47.936;12.742;2022-08-02T15:26:03;31.50;26.50
36280;DHT22;22317;47.936;12.742;2022-08-02T15:28:32;31.50;26.60
36280;DHT22;22317;47.936;12.742;2022-08-02T15:30:58;31.40;26.30
36280;DHT22;22317;47.936;12.742;2022-08-02T15:33:25;31.40;26.50
36280;DHT22;22317;47.936;12.742;2022-08-02T15:35:54;31.30;26.20
36280;DHT22;22317;47.936;12.742;2022-08-02T15:38:20;31.00;26.20
36280;DHT22;22317;47.936;12.742;2022-08-02T15:40:48;30.70;26.40
36280;DHT22;22317;47.936;12.742;2022-08-02T15:43:13;30.50;26.60
36280;DHT22;22317;47.936;12.742;2022-08-02T15:45:39;30.40;26.60
36280;DHT22;22317;47.936;12.742;2022-08-02T15:48:05;30.20;26.60
36280;DHT22;22317;47.936;12.742;2022-08-02T15:50:35;30.20;26.90
36280;DHT22;22317;47.936;12.742;2022-08-02T15:53:09;30.00;27.10
36280;DHT22;22317;47.936;12.742;2022-08-02T15:55:38;29.90;27.30
36280;DHT22;22317;47.936;12.742;2022-08-02T15:58:10;29.80;27.40
36280;DHT22;22317;47.936;12.742;2022-08-02T16:00:39;29.70;27.60
36280;DHT22;22317;47.936;12.742;2022-08-02T16:03:07;29.60;27.60
36280;DHT22;22317;47.936;12.742;2022-08-02T16:05:36;29.50;27.60
36280;DHT22;22317;47.936;12.742;2022-08-02T16:08:02;29.40;27.60
36280;DHT22;22317;47.936;12.742;2022-08-02T16:10:28;29.40;27.70